createdAt,value
2018-11-07T00:02:14.819Z,21.50
2018-11-07T00:04:43.150Z,21.50
2018-11-07T00:07:11.526Z,21.50
2018-11-07T00:09:39.877Z,21.50
2018-11-07T00:12:08.436Z,21.50
2018-11-07T00:14:36.879Z,21.60
2018-11-07T00:17:05.546Z,21.50
2018-11-07T00:19:33.994Z,21.50
2018-11-07T00:22:02.422Z,21.50
2018-11-07T00:24:30.846Z,21.50
2018-11-07T00:26:59.226Z,21.50
2018-11-07T00:29:28.514Z,21.50
2018-11-07T00:31:57.098Z,21.50
2018-11-07T00:34:25.736Z,21.50
2018-11-07T00:36:54.104Z,21.50
2018-11-07T00:39:22.556Z,21.50
2018-11-07T00:41:50.950Z,21.50
2018-11-07T00:44:19.422Z,21.50
2018-11-07T00:46:47.804Z,21.50
2018-11-07T00:49:16.364Z,21.50
2018-11-07T00:51:44.897Z,21.50
2018-11-07T00:54:13.378Z,21.50
2018-11-07T00:56:42.444Z,21.50
2018-11-07T00:59:10.949Z,21.50
2018-11-07T01:01:39.332Z,21.50
2018-11-07T01:04:07.821Z,21.50
2018-11-07T01:06:36.325Z,21.50
2018-11-07T01:09:06.342Z,21.50
2018-11-07T01:11:34.721Z,21.50
2018-11-07T01:14:03.148Z,21.50
2018-11-07T01:16:31.870Z,21.50
2018-11-07T01:19:00.335Z,21.50
2018-11-07T01:21:28.708Z,21.50
2018-11-07T01:23:57.057Z,21.50
2018-11-07T01:26:25.500Z,21.40
2018-11-07T01:28:53.919Z,21.50
2018-11-07T01:31:22.301Z,21.40
2018-11-07T01:33:51.435Z,21.50
2018-11-07T01:36:19.825Z,21.40
2018-11-07T01:38:48.295Z,21.40
2018-11-07T01:41:16.678Z,21.40
2018-11-07T01:43:45.029Z,21.40
2018-11-07T01:46:13.418Z,21.40
2018-11-07T01:48:42.545Z,21.40
2018-11-07T01:51:11.050Z,21.40
2018-11-07T01:53:39.349Z,21.50
2018-11-07T01:56:07.872Z,21.40
2018-11-07T01:58:36.283Z,21.40
2018-11-07T02:01:05.344Z,21.40
2018-11-07T02:03:33.825Z,21.40
2018-11-07T02:06:02.266Z,21.40
2018-11-07T02:08:31.594Z,21.40
2018-11-07T02:11:00.946Z,21.40
2018-11-07T02:13:29.690Z,21.40
2018-11-07T02:15:58.477Z,21.40
2018-11-07T02:18:26.943Z,21.40
2018-11-07T02:20:55.252Z,21.40
2018-11-07T02:23:24.158Z,21.40
2018-11-07T02:25:52.530Z,21.40
2018-11-07T02:28:20.914Z,21.40
2018-11-07T02:30:49.469Z,21.40
2018-11-07T02:33:17.949Z,21.40
2018-11-07T02:35:46.345Z,21.40
2018-11-07T02:38:14.756Z,21.30
2018-11-07T02:40:43.088Z,21.40
2018-11-07T02:43:11.466Z,21.30
2018-11-07T02:45:39.854Z,21.40
2018-11-07T02:48:08.190Z,21.40
2018-11-07T02:50:36.690Z,21.30
2018-11-07T02:53:05.272Z,21.30
2018-11-07T02:55:34.304Z,21.30
2018-11-07T02:58:02.664Z,21.30
2018-11-07T03:00:31.025Z,21.30
2018-11-07T03:02:59.530Z,21.40
2018-11-07T03:05:27.930Z,21.40
2018-11-07T03:07:56.272Z,21.40
2018-11-07T03:10:24.810Z,21.30
2018-11-07T03:12:53.254Z,21.30
2018-11-07T03:15:21.625Z,21.30
2018-11-07T03:17:49.975Z,21.30
2018-11-07T03:20:18.455Z,21.30
2018-11-07T03:22:47.403Z,21.30
2018-11-07T03:25:16.363Z,21.30
2018-11-07T03:27:45.179Z,21.30
2018-11-07T03:30:13.615Z,21.30
2018-11-07T03:32:41.932Z,21.30
2018-11-07T03:35:15.683Z,21.30
2018-11-07T03:37:44.471Z,21.30
2018-11-07T03:40:13.093Z,21.30
2018-11-07T03:42:41.541Z,21.30
2018-11-07T03:45:09.965Z,21.30
2018-11-07T03:47:38.315Z,21.30
2018-11-07T03:50:06.709Z,21.30
2018-11-07T03:52:35.271Z,21.30
2018-11-07T03:55:04.282Z,21.30
2018-11-07T03:57:32.597Z,21.30
2018-11-07T04:00:00.977Z,21.30
2018-11-07T04:02:29.319Z,21.20
2018-11-07T04:04:57.693Z,21.20
2018-11-07T04:07:26.851Z,21.30
2018-11-07T04:09:55.195Z,21.30
2018-11-07T04:12:24.137Z,21.20
2018-11-07T04:14:52.601Z,21.20
2018-11-07T04:17:20.997Z,21.20
2018-11-07T04:19:49.403Z,21.30
2018-11-07T04:22:17.778Z,21.20
2018-11-07T04:24:46.147Z,21.20
2018-11-07T04:27:14.916Z,21.20
2018-11-07T04:29:43.298Z,21.20
2018-11-07T04:32:11.759Z,21.20
2018-11-07T04:34:40.102Z,21.20
2018-11-07T04:37:08.514Z,21.20
2018-11-07T04:39:36.992Z,21.20
2018-11-07T04:42:05.388Z,21.20
2018-11-07T04:44:34.478Z,21.20
2018-11-07T04:47:03.048Z,21.20
2018-11-07T04:49:31.424Z,21.20
2018-11-07T04:51:59.914Z,21.20
2018-11-07T04:54:28.310Z,21.20
2018-11-07T04:56:56.702Z,21.20
2018-11-07T04:59:25.176Z,21.20
2018-11-07T05:01:53.509Z,21.20
2018-11-07T05:04:21.930Z,21.20
2018-11-07T05:06:50.283Z,21.20
2018-11-07T05:09:18.645Z,21.20
2018-11-07T05:11:47.748Z,21.20
2018-11-07T05:14:16.232Z,21.20
2018-11-07T05:16:45.332Z,21.20
2018-11-07T05:19:13.746Z,21.20
2018-11-07T05:21:42.305Z,21.20
2018-11-07T05:24:10.670Z,21.20
2018-11-07T05:26:39.038Z,21.20
2018-11-07T05:29:08.656Z,21.20
2018-11-07T05:31:37.007Z,21.20
2018-11-07T05:34:05.426Z,21.20
2018-11-07T05:36:33.795Z,21.20
2018-11-07T05:39:04.257Z,21.20
2018-11-07T05:41:33.321Z,21.20
2018-11-07T05:44:01.672Z,21.20
2018-11-07T05:46:30.237Z,21.30
2018-11-07T05:48:58.713Z,21.30
2018-11-07T05:51:28.076Z,21.30
2018-11-07T05:53:56.975Z,21.40
2018-11-07T05:56:25.413Z,21.40
2018-11-07T05:58:53.765Z,21.40
2018-11-07T06:01:22.371Z,21.50
2018-11-07T06:03:50.769Z,21.50
2018-11-07T06:06:19.233Z,21.50
2018-11-07T06:08:47.594Z,21.50
2018-11-07T06:11:15.971Z,21.50
2018-11-07T06:13:44.309Z,21.60
2018-11-07T06:16:12.905Z,21.60
2018-11-07T06:18:41.583Z,21.60
2018-11-07T06:21:10.043Z,21.70
2018-11-07T06:23:38.432Z,21.70
2018-11-07T06:26:06.775Z,21.70
2018-11-07T06:28:35.148Z,21.70
2018-11-07T06:31:03.511Z,21.70
2018-11-07T06:33:31.889Z,21.80
2018-11-07T06:36:00.935Z,21.80
2018-11-07T06:38:30.017Z,21.80
2018-11-07T06:40:58.477Z,21.80
2018-11-07T06:43:27.431Z,21.80
2018-11-07T06:45:55.865Z,21.90
2018-11-07T06:48:24.206Z,21.90
2018-11-07T06:50:52.573Z,21.90
2018-11-07T06:53:21.078Z,21.90
2018-11-07T06:55:49.606Z,22.00
2018-11-07T06:58:18.650Z,22.00
2018-11-07T07:00:47.020Z,22.00
2018-11-07T07:03:15.353Z,22.00
2018-11-07T07:05:43.716Z,22.00
2018-11-07T07:08:12.037Z,22.00
2018-11-07T07:10:40.391Z,22.00
2018-11-07T07:13:08.803Z,22.00
2018-11-07T07:15:37.169Z,22.00
2018-11-07T07:18:06.042Z,22.00
2018-11-07T07:20:34.410Z,22.00
2018-11-07T07:23:02.855Z,22.00
2018-11-07T07:25:31.493Z,22.00
2018-11-07T07:27:59.846Z,22.00
2018-11-07T07:30:28.224Z,22.00
2018-11-07T07:32:56.688Z,22.00
2018-11-07T07:35:25.178Z,22.00
2018-11-07T07:37:53.618Z,22.00
2018-11-07T07:40:21.966Z,22.10
2018-11-07T07:42:50.369Z,22.10
2018-11-07T07:45:20.077Z,22.10
2018-11-07T07:47:48.418Z,22.10
2018-11-07T07:50:18.114Z,22.20
2018-11-07T07:52:46.772Z,22.20
2018-11-07T07:55:15.233Z,22.20
2018-11-07T07:57:43.944Z,22.30
2018-11-07T08:00:14.704Z,22.30
2018-11-07T08:02:45.454Z,22.30
2018-11-07T08:05:14.092Z,22.30
2018-11-07T08:07:42.942Z,22.30
2018-11-07T08:10:13.169Z,22.40
2018-11-07T08:12:42.102Z,22.40
2018-11-07T08:15:11.006Z,22.40
2018-11-07T08:17:40.959Z,22.40
2018-11-07T08:20:10.324Z,22.50
2018-11-07T08:22:38.702Z,22.50
2018-11-07T08:25:07.160Z,22.50
2018-11-07T08:27:36.217Z,22.60
2018-11-07T08:30:06.140Z,22.60
2018-11-07T08:32:34.496Z,22.60
2018-11-07T08:35:02.896Z,22.60
2018-11-07T08:37:31.961Z,22.60
2018-11-07T08:40:00.356Z,22.60
2018-11-07T08:42:28.914Z,22.60
2018-11-07T08:44:57.897Z,22.60
2018-11-07T08:47:26.301Z,22.60
2018-11-07T08:49:54.695Z,22.60
2018-11-07T08:52:23.109Z,22.60
2018-11-07T08:54:52.074Z,22.60
2018-11-07T08:57:20.393Z,22.60
2018-11-07T08:59:48.805Z,22.50
2018-11-07T09:02:17.915Z,22.50
2018-11-07T09:04:46.280Z,22.50
2018-11-07T09:07:14.664Z,22.50
2018-11-07T09:09:42.997Z,22.50
2018-11-07T09:12:11.439Z,22.50
2018-11-07T09:14:39.729Z,22.50
2018-11-07T09:17:08.458Z,22.50
2018-11-07T09:19:36.888Z,22.50
2018-11-07T09:22:06.651Z,22.50
2018-11-07T09:24:35.111Z,22.50
2018-11-07T09:27:04.435Z,22.40
2018-11-07T09:29:32.783Z,22.40
2018-11-07T09:32:01.295Z,22.40
2018-11-07T09:34:30.395Z,22.40
2018-11-07T09:36:58.854Z,22.40
2018-11-07T09:39:27.248Z,22.40
2018-11-07T09:41:55.675Z,22.40
2018-11-07T09:44:24.192Z,22.40
2018-11-07T09:46:52.562Z,22.40
2018-11-07T09:49:21.014Z,22.40
2018-11-07T09:51:49.526Z,22.50
2018-11-07T09:54:17.963Z,22.50
2018-11-07T09:56:46.357Z,22.50
2018-11-07T09:59:14.755Z,22.50
2018-11-07T10:01:43.220Z,22.50
2018-11-07T10:04:11.600Z,22.50
2018-11-07T10:06:41.073Z,22.50
2018-11-07T10:09:10.758Z,22.50
2018-11-07T10:11:39.295Z,22.50
2018-11-07T10:14:08.134Z,22.50
2018-11-07T10:16:37.570Z,22.50
2018-11-07T10:19:07.755Z,22.50
2018-11-07T10:21:36.214Z,22.60
2018-11-07T10:24:05.331Z,22.60
2018-11-07T10:26:33.727Z,22.60
2018-11-07T10:29:02.306Z,22.60
2018-11-07T10:31:30.397Z,22.60
2018-11-07T10:33:58.890Z,22.60
2018-11-07T10:36:27.802Z,22.60
2018-11-07T10:38:56.319Z,22.60
2018-11-07T10:41:24.940Z,22.60
2018-11-07T10:43:53.339Z,22.60
2018-11-07T10:46:22.242Z,22.60
2018-11-07T10:48:50.606Z,22.70
2018-11-07T10:51:19.405Z,22.70
2018-11-07T10:53:48.451Z,22.60
2018-11-07T10:56:16.907Z,22.70
2018-11-07T10:58:45.264Z,22.70
2018-11-07T11:01:19.751Z,22.70
2018-11-07T11:03:48.113Z,22.70
2018-11-07T11:06:17.255Z,22.70
2018-11-07T11:08:46.365Z,22.70
2018-11-07T11:11:14.754Z,22.70
2018-11-07T11:13:43.671Z,22.70
2018-11-07T11:16:12.013Z,22.70
2018-11-07T11:18:41.579Z,22.70
2018-11-07T11:21:10.528Z,22.70
2018-11-07T11:23:38.905Z,22.70
2018-11-07T11:26:07.267Z,22.80
2018-11-07T11:28:35.696Z,22.80
2018-11-07T11:31:04.150Z,22.70
2018-11-07T11:33:32.543Z,22.70
2018-11-07T11:36:00.893Z,22.80
2018-11-07T11:38:29.309Z,22.80
2018-11-07T11:40:57.729Z,22.80
2018-11-07T11:43:26.114Z,22.80
2018-11-07T11:45:54.462Z,22.80
2018-11-07T11:48:22.951Z,22.80
2018-11-07T11:50:51.314Z,22.80
2018-11-07T11:53:19.680Z,22.80
2018-11-07T11:55:48.150Z,22.80
2018-11-07T11:58:16.696Z,22.80
2018-11-07T12:00:45.694Z,22.80
2018-11-07T12:03:14.669Z,22.90
2018-11-07T12:05:43.102Z,22.90
2018-11-07T12:08:11.715Z,22.90
2018-11-07T12:10:39.968Z,22.90
2018-11-07T12:13:08.428Z,22.90
2018-11-07T12:15:36.740Z,23.00
2018-11-07T12:18:05.556Z,23.00
2018-11-07T12:20:33.906Z,23.00
2018-11-07T12:23:02.268Z,23.00
2018-11-07T12:25:30.644Z,23.00
2018-11-07T12:27:59.145Z,23.00
2018-11-07T12:30:27.528Z,23.00
2018-11-07T12:32:55.974Z,23.00
2018-11-07T12:35:24.506Z,23.00
2018-11-07T12:37:52.972Z,23.00
2018-11-07T12:40:21.389Z,23.00
2018-11-07T12:42:49.844Z,23.00
2018-11-07T12:45:18.547Z,23.00
2018-11-07T12:47:46.936Z,23.00
2018-11-07T12:50:18.210Z,23.00
2018-11-07T12:52:46.827Z,23.00
2018-11-07T12:55:22.284Z,23.00
2018-11-07T12:57:50.872Z,23.00
2018-11-07T13:00:21.496Z,23.00
2018-11-07T13:02:49.844Z,22.90
2018-11-07T13:05:19.807Z,23.00
2018-11-07T13:07:48.844Z,23.00
2018-11-07T13:10:19.259Z,22.90
2018-11-07T13:12:48.784Z,23.00
2018-11-07T13:15:17.483Z,23.00
2018-11-07T13:17:46.667Z,23.00
2018-11-07T13:20:17.324Z,23.00
2018-11-07T13:22:47.001Z,23.00
2018-11-07T13:25:16.009Z,23.00
2018-11-07T13:27:44.359Z,23.00
2018-11-07T13:30:15.245Z,23.00
2018-11-07T13:32:43.631Z,23.00
2018-11-07T13:35:13.031Z,23.00
2018-11-07T13:37:42.546Z,23.00
2018-11-07T13:40:14.290Z,23.00
2018-11-07T13:42:43.402Z,22.90
2018-11-07T13:45:14.005Z,23.00
2018-11-07T13:47:44.107Z,23.00
2018-11-07T13:50:13.609Z,23.00
2018-11-07T13:52:42.033Z,22.90
2018-11-07T13:55:11.544Z,23.00
2018-11-07T13:57:41.649Z,23.00
2018-11-07T14:00:13.386Z,23.00
2018-11-07T14:02:41.759Z,23.00
2018-11-07T14:05:11.007Z,23.00
2018-11-07T14:07:40.607Z,22.90
2018-11-07T14:10:21.297Z,22.90
2018-11-07T14:12:50.009Z,22.90
2018-11-07T14:15:18.523Z,22.90
2018-11-07T14:17:47.177Z,22.90
2018-11-07T14:20:15.555Z,22.90
2018-11-07T14:22:44.127Z,22.90
2018-11-07T14:25:13.139Z,22.90
2018-11-07T14:27:41.844Z,22.90
2018-11-07T14:30:12.862Z,22.90
2018-11-07T14:32:45.869Z,22.90
2018-11-07T14:35:14.398Z,22.90
2018-11-07T14:37:42.789Z,22.90
2018-11-07T14:40:11.512Z,22.90
2018-11-07T14:42:40.358Z,22.90
2018-11-07T14:45:10.197Z,22.90
2018-11-07T14:47:38.993Z,22.90
2018-11-07T14:50:08.914Z,22.90
2018-11-07T14:52:37.451Z,22.80
2018-11-07T14:55:06.600Z,22.80
2018-11-07T14:57:35.986Z,22.80
2018-11-07T15:00:05.785Z,22.80
2018-11-07T15:02:34.251Z,22.80
2018-11-07T15:05:02.909Z,22.80
2018-11-07T15:07:31.314Z,22.80
2018-11-07T15:10:00.292Z,22.80
2018-11-07T15:12:28.642Z,22.80
2018-11-07T15:14:57.060Z,22.80
2018-11-07T15:17:25.541Z,22.80
2018-11-07T15:19:54.536Z,22.80
2018-11-07T15:22:22.945Z,22.80
2018-11-07T15:24:51.325Z,22.80
2018-11-07T15:27:19.784Z,22.90
2018-11-07T15:29:48.150Z,22.90
2018-11-07T15:32:16.525Z,22.90
2018-11-07T15:34:44.942Z,22.90
2018-11-07T15:37:13.294Z,22.90
2018-11-07T15:39:41.798Z,22.90
2018-11-07T15:42:10.176Z,22.90
2018-11-07T15:44:38.580Z,22.90
2018-11-07T15:47:06.986Z,22.90
2018-11-07T15:49:39.864Z,22.90
2018-11-07T15:52:08.281Z,22.90
2018-11-07T15:54:37.388Z,22.90
2018-11-07T15:57:06.822Z,22.90
2018-11-07T15:59:35.150Z,22.90
2018-11-07T16:02:03.516Z,22.90
2018-11-07T16:04:32.019Z,22.90
2018-11-07T16:07:00.607Z,22.90
2018-11-07T16:09:29.029Z,22.90
2018-11-07T16:11:58.603Z,22.90
2018-11-07T16:14:27.092Z,23.00
2018-11-07T16:16:55.455Z,23.00
2018-11-07T16:19:23.941Z,22.90
2018-11-07T16:21:52.345Z,23.00
2018-11-07T16:24:20.686Z,23.00
2018-11-07T16:26:49.075Z,23.00
2018-11-07T16:29:17.638Z,22.90
2018-11-07T16:31:45.999Z,23.00
2018-11-07T16:34:14.816Z,23.00
2018-11-07T16:36:43.244Z,23.00
2018-11-07T16:39:12.167Z,23.00
2018-11-07T16:41:40.650Z,23.00
2018-11-07T16:44:08.940Z,23.00
2018-11-07T16:46:37.371Z,23.00
2018-11-07T16:49:06.513Z,23.00
2018-11-07T16:51:34.916Z,23.00
2018-11-07T16:54:03.450Z,23.00
2018-11-07T16:56:31.831Z,23.00
2018-11-07T16:59:00.264Z,23.00
2018-11-07T17:01:29.376Z,23.00
2018-11-07T17:03:57.781Z,23.00
2018-11-07T17:06:26.314Z,23.00
2018-11-07T17:08:55.132Z,22.90
2018-11-07T17:11:23.543Z,22.90
2018-11-07T17:13:51.915Z,22.90
2018-11-07T17:16:20.422Z,22.90
2018-11-07T17:18:49.318Z,22.90
2018-11-07T17:21:17.728Z,22.90
2018-11-07T17:23:46.857Z,22.90
2018-11-07T17:26:15.200Z,22.90
2018-11-07T17:28:43.624Z,22.90
2018-11-07T17:31:12.068Z,22.90
2018-11-07T17:33:41.263Z,22.80
2018-11-07T17:36:10.085Z,22.90
2018-11-07T17:38:43.023Z,22.80
2018-11-07T17:41:11.442Z,22.80
2018-11-07T17:43:39.970Z,22.80
2018-11-07T17:46:08.435Z,22.80
2018-11-07T17:48:37.015Z,22.80
2018-11-07T17:51:05.673Z,22.70
2018-11-07T17:53:34.208Z,22.70
2018-11-07T17:56:02.637Z,22.70
2018-11-07T17:58:31.120Z,22.70
2018-11-07T18:00:59.964Z,22.70
2018-11-07T18:03:28.822Z,22.70
2018-11-07T18:05:57.198Z,22.70
2018-11-07T18:08:25.526Z,22.60
2018-11-07T18:10:54.446Z,22.60
2018-11-07T18:13:22.790Z,22.60
2018-11-07T18:15:51.218Z,22.60
2018-11-07T18:18:19.629Z,22.60
2018-11-07T18:20:48.003Z,22.60
2018-11-07T18:23:16.511Z,22.60
2018-11-07T18:25:44.922Z,22.60
2018-11-07T18:28:13.347Z,22.60
2018-11-07T18:30:42.458Z,22.60
2018-11-07T18:33:10.882Z,22.50
2018-11-07T18:35:39.778Z,22.50
2018-11-07T18:38:08.359Z,22.50
2018-11-07T18:40:36.742Z,22.50
2018-11-07T18:43:05.486Z,22.50
2018-11-07T18:45:33.744Z,22.50
2018-11-07T18:48:02.124Z,22.50
2018-11-07T18:50:30.538Z,22.50
2018-11-07T18:52:59.033Z,22.50
2018-11-07T18:55:27.354Z,22.50
2018-11-07T18:57:55.799Z,22.50
2018-11-07T19:00:24.780Z,22.60
2018-11-07T19:02:53.377Z,22.60
2018-11-07T19:05:21.811Z,22.60
2018-11-07T19:07:50.209Z,22.60
2018-11-07T19:10:20.798Z,22.60
2018-11-07T19:12:50.037Z,22.60
2018-11-07T19:15:18.789Z,22.60
2018-11-07T19:17:48.150Z,22.60
2018-11-07T19:20:17.339Z,22.60
2018-11-07T19:22:45.886Z,22.60
2018-11-07T19:25:18.981Z,22.60
2018-11-07T19:27:47.335Z,22.70
2018-11-07T19:30:22.747Z,22.70
2018-11-07T19:32:52.250Z,22.80
2018-11-07T19:35:21.650Z,22.80
2018-11-07T19:37:50.725Z,22.80
2018-11-07T19:40:20.734Z,22.90
2018-11-07T19:42:49.080Z,22.90
2018-11-07T19:45:18.594Z,22.90
2018-11-07T19:47:47.187Z,23.00
2018-11-07T19:50:16.819Z,23.00
2018-11-07T19:52:46.324Z,23.00
2018-11-07T19:55:16.763Z,23.00
2018-11-07T19:57:47.058Z,23.10
2018-11-07T20:00:16.499Z,23.10
2018-11-07T20:02:45.898Z,23.10
2018-11-07T20:05:15.254Z,23.10
2018-11-07T20:07:43.631Z,23.10
2018-11-07T20:10:14.418Z,23.20
2018-11-07T20:12:42.919Z,23.10
2018-11-07T20:15:12.593Z,23.20
2018-11-07T20:17:40.969Z,23.20
2018-11-07T20:20:09.801Z,23.20
2018-11-07T20:22:38.199Z,23.20
2018-11-07T20:25:07.832Z,23.20
2018-11-07T20:27:36.355Z,23.20
2018-11-07T20:30:06.761Z,23.20
2018-11-07T20:32:35.093Z,23.20
2018-11-07T20:35:03.515Z,23.30
2018-11-07T20:37:32.407Z,23.30
2018-11-07T20:40:00.940Z,23.30
2018-11-07T20:42:29.364Z,23.30
2018-11-07T20:44:58.724Z,23.30
2018-11-07T20:47:27.256Z,23.30
2018-11-07T20:49:55.645Z,23.30
2018-11-07T20:52:24.063Z,23.30
2018-11-07T20:54:52.699Z,23.30
2018-11-07T20:57:21.012Z,23.30
2018-11-07T20:59:49.488Z,23.30
2018-11-07T21:02:17.918Z,23.30
2018-11-07T21:04:46.400Z,23.30
2018-11-07T21:07:14.781Z,23.30
2018-11-07T21:09:43.322Z,23.20
2018-11-07T21:12:14.027Z,23.20
2018-11-07T21:14:42.414Z,23.20
2018-11-07T21:17:10.833Z,23.20
2018-11-07T21:19:39.225Z,23.10
2018-11-07T21:22:09.531Z,23.10
2018-11-07T21:24:37.972Z,23.10
2018-11-07T21:27:06.806Z,23.00
2018-11-07T21:29:35.596Z,23.00
2018-11-07T21:32:04.312Z,23.00
2018-11-07T21:34:32.791Z,23.00
2018-11-07T21:37:01.815Z,22.90
2018-11-07T21:39:30.404Z,22.90
2018-11-07T21:41:59.607Z,22.90
2018-11-07T21:44:30.172Z,22.90
2018-11-07T21:46:59.302Z,22.90
2018-11-07T21:49:28.880Z,22.80
2018-11-07T21:51:58.147Z,22.80
2018-11-07T21:54:27.407Z,22.80
2018-11-07T21:56:56.621Z,22.80
2018-11-07T21:59:25.086Z,22.80
2018-11-07T22:01:53.453Z,22.80
2018-11-07T22:04:21.869Z,22.70
2018-11-07T22:06:50.325Z,22.70
2018-11-07T22:09:18.725Z,22.70
2018-11-07T22:11:47.052Z,22.70
2018-11-07T22:14:15.465Z,22.70
2018-11-07T22:16:44.452Z,22.60
2018-11-07T22:19:12.925Z,22.60
2018-11-07T22:21:41.313Z,22.60
2018-11-07T22:24:09.805Z,22.60
2018-11-07T22:26:38.038Z,22.60
2018-11-07T22:29:06.426Z,22.60
2018-11-07T22:31:34.865Z,22.60
2018-11-07T22:34:03.742Z,22.50
2018-11-07T22:36:32.097Z,22.50
2018-11-07T22:39:00.457Z,22.50
2018-11-07T22:41:28.851Z,22.50
2018-11-07T22:43:57.937Z,22.50
2018-11-07T22:46:27.023Z,22.50
2018-11-07T22:48:55.361Z,22.50
2018-11-07T22:51:25.633Z,22.50
2018-11-07T22:53:54.190Z,22.50
2018-11-07T22:56:23.507Z,22.50
2018-11-07T22:58:51.994Z,22.50
2018-11-07T23:01:21.483Z,22.50
2018-11-07T23:03:51.272Z,22.40
2018-11-07T23:06:19.691Z,22.40
2018-11-07T23:08:48.699Z,22.40
2018-11-07T23:11:17.073Z,22.40
2018-11-07T23:13:45.541Z,22.40
2018-11-07T23:16:14.069Z,22.40
2018-11-07T23:18:42.817Z,22.40
2018-11-07T23:21:11.269Z,22.40
2018-11-07T23:23:39.632Z,22.40
2018-11-07T23:26:08.541Z,22.40
2018-11-07T23:28:36.890Z,22.40
2018-11-07T23:31:05.434Z,22.40
2018-11-07T23:33:34.495Z,22.40
2018-11-07T23:36:03.011Z,22.40
2018-11-07T23:38:31.352Z,22.30
2018-11-07T23:41:00.333Z,22.30
2018-11-07T23:43:28.924Z,22.30
2018-11-07T23:45:57.301Z,22.30
2018-11-07T23:48:25.778Z,22.30
2018-11-07T23:50:54.138Z,22.30
2018-11-07T23:53:22.555Z,22.30
2018-11-07T23:55:51.534Z,22.30
2018-11-07T23:58:19.910Z,22.30
